createdAt,value
2018-04-16T00:00:53.521Z,10.06
2018-04-16T00:03:22.861Z,9.96
2018-04-16T00:05:52.092Z,10.16
2018-04-16T00:08:21.320Z,10.55
2018-04-16T00:10:50.527Z,10.50
2018-04-16T00:13:19.528Z,10.51
2018-04-16T00:15:48.691Z,10.77
2018-04-16T00:18:17.959Z,10.29
2018-04-16T00:20:47.075Z,10.35
2018-04-16T00:23:16.333Z,10.45
2018-04-16T00:25:45.660Z,10.24
2018-04-16T00:28:14.725Z,10.26
2018-04-16T00:30:43.817Z,10.36
2018-04-16T00:33:18.511Z,10.40
2018-04-16T00:35:53.285Z,10.34
2018-04-16T00:38:28.097Z,10.47
2018-04-16T00:41:02.772Z,10.53
2018-04-16T00:43:37.653Z,10.63
2018-04-16T00:46:12.340Z,11.03
2018-04-16T00:48:47.169Z,10.77
2018-04-16T00:51:22.001Z,10.97
2018-04-16T00:54:08.160Z,11.18
2018-04-16T00:56:42.552Z,10.91
2018-04-16T00:59:17.370Z,10.83
2018-04-16T01:01:52.348Z,10.69
2018-04-16T01:04:27.385Z,10.18
2018-04-16T01:07:09.149Z,10.19
2018-04-16T01:09:43.689Z,10.07
2018-04-16T01:12:18.507Z,10.72
2018-04-16T01:14:53.188Z,10.93
2018-04-16T01:17:27.876Z,10.35
2018-04-16T01:20:02.845Z,10.20
2018-04-16T01:22:37.533Z,10.62
2018-04-16T01:25:12.434Z,10.55
2018-04-16T01:30:53.905Z,11.01
2018-04-16T01:33:28.657Z,10.67
2018-04-16T01:36:03.305Z,10.65
2018-04-16T01:38:37.912Z,10.64
2018-04-16T01:41:12.733Z,10.60
2018-04-16T01:43:47.547Z,10.35
2018-04-16T01:46:22.021Z,10.04
2018-04-16T01:48:56.843Z,9.94
2018-04-16T01:51:32.767Z,9.93
2018-04-16T01:54:07.608Z,10.24
2018-04-16T01:56:42.293Z,10.11
2018-04-16T01:59:16.916Z,10.47
2018-04-16T02:01:51.729Z,10.18
2018-04-16T02:07:40.396Z,9.90
2018-04-16T02:10:15.084Z,10.15
2018-04-16T02:12:50.189Z,10.63
2018-04-16T02:15:25.032Z,10.15
2018-04-16T02:17:59.661Z,9.85
2018-04-16T02:20:34.554Z,10.11
2018-04-16T02:23:09.212Z,9.98
2018-04-16T02:25:44.077Z,9.80
2018-04-16T02:28:18.712Z,9.89
2018-04-16T02:30:53.218Z,10.35
2018-04-16T02:33:28.093Z,10.03
2018-04-16T02:36:03.040Z,10.02
2018-04-16T02:38:37.924Z,10.04
2018-04-16T02:41:12.841Z,9.97
2018-04-16T02:43:47.484Z,10.02
2018-04-16T02:46:22.649Z,9.96
2018-04-16T02:48:57.406Z,9.98
2018-04-16T02:51:32.779Z,9.75
2018-04-16T02:54:07.446Z,9.67
2018-04-16T02:56:42.456Z,9.61
2018-04-16T02:59:17.183Z,9.66
2018-04-16T03:01:51.713Z,9.66
2018-04-16T03:04:26.425Z,9.68
2018-04-16T03:07:01.332Z,10.16
2018-04-16T03:09:36.123Z,9.90
2018-04-16T03:12:10.960Z,9.77
2018-04-16T03:14:45.808Z,9.63
2018-04-16T03:17:20.585Z,9.63
2018-04-16T03:19:55.029Z,9.61
2018-04-16T03:22:30.013Z,9.74
2018-04-16T03:25:04.753Z,9.84
2018-04-16T03:27:39.541Z,9.87
2018-04-16T03:30:14.339Z,10.10
2018-04-16T03:32:48.696Z,10.83
2018-04-16T03:35:23.364Z,10.50
2018-04-16T03:37:58.390Z,10.10
2018-04-16T03:40:33.038Z,9.85
2018-04-16T03:43:07.965Z,9.84
2018-04-16T03:45:42.584Z,10.11
2018-04-16T03:48:17.457Z,10.39
2018-04-16T03:50:52.117Z,10.14
2018-04-16T03:53:26.125Z,9.94
2018-04-16T03:56:00.136Z,9.69
2018-04-16T03:58:29.369Z,9.75
2018-04-16T04:00:58.523Z,9.66
2018-04-16T04:03:27.622Z,9.60
2018-04-16T04:05:56.753Z,9.74
2018-04-16T04:08:25.851Z,9.77
2018-04-16T04:10:54.948Z,9.85
2018-04-16T04:13:24.129Z,10.41
2018-04-16T04:15:53.383Z,10.58
2018-04-16T04:18:22.491Z,10.86
2018-04-16T04:20:51.771Z,10.92
2018-04-16T04:23:32.311Z,10.77
2018-04-16T04:26:13.131Z,10.39
2018-04-16T04:28:53.437Z,10.21
2018-04-16T04:31:22.207Z,10.62
2018-04-16T04:33:51.510Z,10.85
2018-04-16T04:36:20.725Z,10.54
2018-04-16T04:38:49.916Z,10.81
2018-04-16T04:41:18.964Z,10.68
2018-04-16T04:43:48.212Z,11.42
2018-04-16T04:46:17.609Z,11.56
2018-04-16T04:48:46.664Z,11.58
2018-04-16T04:51:15.813Z,11.46
2018-04-16T04:53:44.956Z,11.60
2018-04-16T04:56:14.193Z,11.43
2018-04-16T04:58:43.348Z,11.33
2018-04-16T05:01:12.396Z,11.23
2018-04-16T05:03:41.623Z,10.73
2018-04-16T05:06:11.487Z,10.95
2018-04-16T05:08:40.673Z,11.23
2018-04-16T05:11:09.787Z,11.86
2018-04-16T05:13:39.051Z,11.94
2018-04-16T05:16:08.159Z,12.02
2018-04-16T05:18:37.450Z,11.93
2018-04-16T05:21:06.709Z,11.90
2018-04-16T05:23:35.769Z,11.82
2018-04-16T05:26:04.835Z,11.93
2018-04-16T05:28:34.036Z,12.16
2018-04-16T05:31:03.199Z,12.10
2018-04-16T05:33:32.495Z,12.50
2018-04-16T05:36:01.736Z,12.03
2018-04-16T05:38:30.832Z,12.23
2018-04-16T05:41:00.068Z,12.36
2018-04-16T05:43:29.204Z,12.03
2018-04-16T05:45:58.431Z,11.92
2018-04-16T05:48:27.413Z,11.78
2018-04-16T05:50:57.505Z,12.32
2018-04-16T05:53:27.001Z,12.71
2018-04-16T05:55:56.300Z,12.63
2018-04-16T05:58:25.486Z,13.16
2018-04-16T06:00:54.464Z,12.89
2018-04-16T06:03:23.603Z,13.53
2018-04-16T06:05:52.832Z,12.87
2018-04-16T06:08:22.068Z,13.17
2018-04-16T06:10:51.204Z,13.05
2018-04-16T06:13:20.454Z,13.33
2018-04-16T06:15:49.576Z,13.33
2018-04-16T06:18:18.687Z,13.47
2018-04-16T06:20:47.800Z,13.11
2018-04-16T06:23:16.961Z,13.12
2018-04-16T06:25:46.019Z,13.69
2018-04-16T06:28:15.254Z,13.69
2018-04-16T06:30:44.776Z,13.65
2018-04-16T06:33:13.937Z,13.68
2018-04-16T06:35:43.147Z,13.71
2018-04-16T06:38:12.325Z,13.95
2018-04-16T06:40:41.676Z,13.67
2018-04-16T06:43:10.861Z,13.46
2018-04-16T06:45:40.872Z,13.21
2018-04-16T06:48:10.021Z,14.01
2018-04-16T06:50:39.133Z,13.88
2018-04-16T06:53:08.276Z,13.84
2018-04-16T06:55:37.417Z,14.21
2018-04-16T06:58:06.783Z,13.36
2018-04-16T07:00:35.882Z,13.94
2018-04-16T07:03:05.024Z,14.08
2018-04-16T07:05:34.279Z,13.85
2018-04-16T07:08:03.348Z,13.97
2018-04-16T07:10:32.506Z,14.54
2018-04-16T07:13:01.904Z,14.14
2018-04-16T07:15:30.969Z,14.38
2018-04-16T07:18:00.070Z,14.08
2018-04-16T07:20:29.072Z,14.14
2018-04-16T07:22:58.246Z,14.18
2018-04-16T07:25:27.492Z,14.27
2018-04-16T07:27:56.698Z,14.15
2018-04-16T07:30:25.728Z,14.01
2018-04-16T07:32:54.808Z,13.91
2018-04-16T07:35:24.037Z,14.12
2018-04-16T07:37:53.029Z,14.26
2018-04-16T07:40:22.354Z,14.61
2018-04-16T07:42:51.500Z,14.66
2018-04-16T07:45:21.079Z,14.42
2018-04-16T07:47:50.594Z,14.57
2018-04-16T07:50:19.615Z,14.50
2018-04-16T07:52:48.803Z,14.12
2018-04-16T07:55:17.964Z,14.06
2018-04-16T07:57:47.339Z,14.38
2018-04-16T08:00:16.429Z,14.12
2018-04-16T08:02:45.672Z,14.14
2018-04-16T08:05:14.885Z,14.09
2018-04-16T08:07:54.841Z,14.39
2018-04-16T08:10:38.901Z,14.12
2018-04-16T08:13:08.078Z,14.08
2018-04-16T08:15:37.172Z,14.32
2018-04-16T08:18:06.575Z,14.68
2018-04-16T08:20:35.876Z,14.72
2018-04-16T08:23:05.272Z,14.35
2018-04-16T08:25:34.645Z,14.31
2018-04-16T08:28:03.734Z,14.14
2018-04-16T08:30:32.872Z,13.81
2018-04-16T08:33:02.224Z,14.15
2018-04-16T08:35:32.130Z,13.89
2018-04-16T08:38:01.298Z,13.87
2018-04-16T08:40:30.600Z,14.50
2018-04-16T08:42:59.757Z,14.38
2018-04-16T08:45:29.350Z,14.46
2018-04-16T08:47:58.693Z,14.32
2018-04-16T08:50:28.109Z,14.35
2018-04-16T08:52:57.455Z,14.58
2018-04-16T08:55:26.649Z,14.17
2018-04-16T08:57:55.871Z,14.29
2018-04-16T09:00:25.608Z,14.55
2018-04-16T09:02:54.917Z,14.50
2018-04-16T09:05:23.979Z,14.45
2018-04-16T09:07:53.251Z,14.58
2018-04-16T09:10:22.413Z,14.50
2018-04-16T09:12:51.856Z,14.55
2018-04-16T09:15:20.979Z,14.13
2018-04-16T09:17:50.247Z,14.40
2018-04-16T09:20:19.660Z,14.43
2018-04-16T09:22:48.973Z,14.81
2018-04-16T09:25:18.217Z,14.91
2018-04-16T09:27:47.421Z,14.85
2018-04-16T09:30:16.666Z,14.78
2018-04-16T09:32:45.712Z,14.73
2018-04-16T09:35:14.840Z,14.59
2018-04-16T09:37:43.979Z,15.06
2018-04-16T09:40:12.992Z,15.18
2018-04-16T09:42:42.072Z,14.97
2018-04-16T09:45:11.727Z,14.60
2018-04-16T09:47:40.778Z,14.75
2018-04-16T09:50:09.888Z,14.75
2018-04-16T09:52:39.192Z,14.66
2018-04-16T09:55:08.345Z,14.51
2018-04-16T09:57:37.512Z,14.56
2018-04-16T10:00:06.912Z,14.35
2018-04-16T10:02:36.351Z,14.35
2018-04-16T10:05:05.636Z,14.43
2018-04-16T10:07:34.698Z,14.30
2018-04-16T10:10:03.773Z,14.56
2018-04-16T10:12:32.879Z,14.13
2018-04-16T10:15:02.339Z,14.17
2018-04-16T10:17:31.531Z,14.27
2018-04-16T10:20:00.797Z,14.10
2018-04-16T10:22:30.021Z,14.04
2018-04-16T10:24:59.476Z,14.31
2018-04-16T10:27:28.841Z,14.34
2018-04-16T10:29:57.897Z,14.58
2018-04-16T10:32:27.088Z,14.49
2018-04-16T10:34:56.365Z,14.59
2018-04-16T10:37:25.642Z,14.48
2018-04-16T10:39:54.696Z,14.46
2018-04-16T10:42:23.944Z,14.64
2018-04-16T10:44:52.926Z,14.42
2018-04-16T10:47:22.082Z,14.46
2018-04-16T10:49:51.368Z,14.43
2018-04-16T10:52:20.730Z,14.51
2018-04-16T10:54:49.875Z,14.77
2018-04-16T10:57:18.924Z,14.86
2018-04-16T10:59:48.226Z,15.04
2018-04-16T11:02:17.436Z,14.29
2018-04-16T11:04:46.609Z,14.84
2018-04-16T11:07:15.694Z,14.52
2018-04-16T11:09:45.007Z,14.43
2018-04-16T11:12:14.067Z,14.61
2018-04-16T11:14:43.314Z,14.59
2018-04-16T11:17:12.626Z,14.64
2018-04-16T11:19:42.233Z,14.42
2018-04-16T11:22:11.422Z,14.53
2018-04-16T11:24:40.629Z,14.53
2018-04-16T11:27:09.975Z,14.45
2018-04-16T11:29:39.142Z,14.23
2018-04-16T11:32:08.464Z,14.09
2018-04-16T11:34:37.626Z,14.35
2018-04-16T11:37:06.873Z,14.34
2018-04-16T11:39:35.983Z,14.22
2018-04-16T11:42:05.052Z,14.09
2018-04-16T11:44:34.309Z,13.98
2018-04-16T11:47:03.715Z,14.26
2018-04-16T11:49:32.965Z,14.16
2018-04-16T11:52:02.255Z,14.12
2018-04-16T11:54:31.609Z,14.22
2018-04-16T11:57:01.128Z,14.40
2018-04-16T11:59:30.156Z,14.22
2018-04-16T12:01:59.260Z,14.48
2018-04-16T12:04:28.439Z,14.08
2018-04-16T12:06:57.597Z,14.00
2018-04-16T12:09:26.889Z,14.04
2018-04-16T12:11:55.958Z,14.13
2018-04-16T12:14:25.181Z,14.02
2018-04-16T12:16:54.184Z,14.13
2018-04-16T12:19:23.332Z,14.01
2018-04-16T12:21:52.478Z,14.57
2018-04-16T12:24:21.642Z,14.65
2018-04-16T12:26:50.878Z,14.25
2018-04-16T12:29:20.205Z,14.22
2018-04-16T12:31:49.336Z,14.32
2018-04-16T12:34:18.791Z,14.18
2018-04-16T12:36:48.217Z,13.76
2018-04-16T12:39:17.494Z,14.28
2018-04-16T12:41:46.624Z,14.28
2018-04-16T12:44:15.614Z,14.36
2018-04-16T12:46:44.715Z,14.27
2018-04-16T12:49:13.776Z,14.17
2018-04-16T12:51:42.880Z,14.50
2018-04-16T12:54:12.256Z,14.46
2018-04-16T12:56:41.833Z,14.69
2018-04-16T12:59:11.184Z,14.58
2018-04-16T13:01:40.374Z,14.83
2018-04-16T13:04:09.541Z,14.57
2018-04-16T13:06:38.896Z,14.76
2018-04-16T13:09:08.297Z,15.13
2018-04-16T13:11:37.336Z,15.08
2018-04-16T13:14:06.687Z,14.93
2018-04-16T13:16:35.963Z,14.51
2018-04-16T13:19:05.137Z,14.53
2018-04-16T13:21:34.388Z,14.84
2018-04-16T13:24:03.384Z,14.64
2018-04-16T13:26:32.416Z,14.48
2018-04-16T13:29:01.616Z,14.48
2018-04-16T13:31:30.875Z,14.28
2018-04-16T13:33:59.996Z,14.46
2018-04-16T13:36:29.058Z,14.36
2018-04-16T13:38:58.366Z,14.65
2018-04-16T13:41:27.344Z,14.27
2018-04-16T13:43:56.424Z,14.13
2018-04-16T13:46:25.605Z,14.42
2018-04-16T13:48:54.958Z,14.64
2018-04-16T13:51:24.255Z,14.59
2018-04-16T13:53:53.301Z,14.50
2018-04-16T13:56:22.520Z,14.89
2018-04-16T13:58:51.700Z,14.98
2018-04-16T14:01:21.040Z,14.85
2018-04-16T14:03:50.268Z,15.07
2018-04-16T14:06:19.496Z,15.09
2018-04-16T14:08:48.721Z,15.22
2018-04-16T14:11:17.948Z,14.91
2018-04-16T14:13:47.228Z,15.92
2018-04-16T14:16:16.318Z,16.00
2018-04-16T14:18:45.440Z,15.81
2018-04-16T14:21:14.587Z,15.74
2018-04-16T14:23:43.748Z,15.53
2018-04-16T14:26:12.935Z,15.14
2018-04-16T14:28:42.443Z,15.23
2018-04-16T14:31:11.756Z,15.31
2018-04-16T14:33:40.980Z,15.58
2018-04-16T14:36:10.265Z,15.17
2018-04-16T14:38:39.490Z,14.60
2018-04-16T14:41:08.641Z,14.45
2018-04-16T14:43:37.720Z,14.17
2018-04-16T14:46:06.782Z,14.37
2018-04-16T14:48:36.121Z,14.35
2018-04-16T14:51:05.330Z,14.17
2018-04-16T14:53:34.338Z,14.15
2018-04-16T14:56:03.517Z,14.13
2018-04-16T14:58:32.573Z,13.80
2018-04-16T15:01:01.810Z,14.26
2018-04-16T15:03:30.732Z,14.41
2018-04-16T15:05:59.904Z,14.61
2018-04-16T15:08:29.104Z,14.41
2018-04-16T15:10:58.257Z,14.47
2018-04-16T15:13:27.199Z,14.63
2018-04-16T15:15:56.409Z,14.36
2018-04-16T15:18:25.567Z,13.92
2018-04-16T15:20:54.692Z,13.90
2018-04-16T15:23:23.834Z,14.13
2018-04-16T15:25:53.071Z,13.86
2018-04-16T15:28:22.149Z,13.73
2018-04-16T15:30:51.017Z,13.66
2018-04-16T15:33:20.065Z,13.46
2018-04-16T15:35:49.477Z,13.06
2018-04-16T15:38:18.619Z,13.71
2018-04-16T15:40:47.762Z,13.67
2018-04-16T15:43:17.107Z,13.68
2018-04-16T15:45:46.368Z,13.17
2018-04-16T15:48:15.855Z,13.09
2018-04-16T15:50:45.077Z,13.11
2018-04-16T15:53:14.401Z,13.07
2018-04-16T15:55:43.314Z,13.31
2018-04-16T15:58:12.447Z,12.98
2018-04-16T16:00:41.432Z,12.78
2018-04-16T16:03:10.665Z,12.83
2018-04-16T16:05:39.481Z,12.78
2018-04-16T16:08:08.466Z,12.94
2018-04-16T16:10:37.467Z,12.84
2018-04-16T16:13:06.373Z,12.53
2018-04-16T16:15:35.423Z,12.80
2018-04-16T16:18:04.561Z,12.37
2018-04-16T16:20:33.443Z,12.41
2018-04-16T16:23:02.431Z,12.28
2018-04-16T16:25:31.357Z,12.56
2018-04-16T16:28:00.386Z,12.40
2018-04-16T16:30:29.219Z,12.49
2018-04-16T16:32:58.029Z,12.12
2018-04-16T16:35:26.864Z,12.12
2018-04-16T16:37:55.722Z,12.10
2018-04-16T16:40:24.560Z,12.05
2018-04-16T16:42:53.364Z,12.47
2018-04-16T16:45:22.340Z,12.30
2018-04-16T16:47:51.313Z,12.41
2018-04-16T16:50:20.489Z,12.23
2018-04-16T16:52:49.492Z,12.16
2018-04-16T16:55:18.353Z,12.12
2018-04-16T16:57:47.288Z,12.04
2018-04-16T17:00:16.205Z,12.20
2018-04-16T17:02:45.064Z,12.38
2018-04-16T17:05:14.093Z,12.06
2018-04-16T17:07:42.918Z,11.97
2018-04-16T17:10:11.969Z,12.25
2018-04-16T17:12:40.968Z,12.32
2018-04-16T17:15:09.938Z,12.12
2018-04-16T17:17:39.037Z,11.97
2018-04-16T17:20:08.054Z,12.20
2018-04-16T17:22:36.857Z,12.17
2018-04-16T17:25:06.274Z,12.38
2018-04-16T17:27:35.059Z,12.38
2018-04-16T17:30:04.208Z,12.30
2018-04-16T17:32:33.188Z,12.16
2018-04-16T17:35:02.225Z,12.01
2018-04-16T17:37:31.186Z,12.02
2018-04-16T17:40:00.115Z,12.35
2018-04-16T17:42:29.241Z,12.02
2018-04-16T17:44:58.137Z,11.95
2018-04-16T17:47:26.942Z,12.44
2018-04-16T17:49:55.852Z,12.40
2018-04-16T17:52:24.672Z,12.31
2018-04-16T17:54:53.584Z,12.20
2018-04-16T17:57:22.455Z,12.27
2018-04-16T17:59:51.470Z,12.18
2018-04-16T18:02:20.457Z,12.12
2018-04-16T18:04:49.365Z,12.02
2018-04-16T18:07:18.577Z,12.46
2018-04-16T18:09:47.459Z,12.53
2018-04-16T18:12:16.219Z,12.31
2018-04-16T18:14:45.039Z,12.24
2018-04-16T18:17:13.857Z,12.10
2018-04-16T18:19:42.647Z,11.98
2018-04-16T18:22:11.473Z,11.82
2018-04-16T18:24:40.311Z,12.03
2018-04-16T18:27:09.157Z,12.15
2018-04-16T18:29:37.948Z,12.12
2018-04-16T18:32:06.859Z,11.97
2018-04-16T18:34:35.722Z,11.95
2018-04-16T18:37:04.568Z,12.12
2018-04-16T18:39:33.345Z,12.07
2018-04-16T18:42:02.388Z,12.14
2018-04-16T18:44:31.213Z,11.98
2018-04-16T18:47:00.038Z,11.69
2018-04-16T18:49:28.853Z,12.02
2018-04-16T18:51:57.640Z,12.32
2018-04-16T18:54:26.546Z,12.01
2018-04-16T18:56:55.484Z,12.08
2018-04-16T18:59:24.263Z,12.29
2018-04-16T19:01:53.173Z,11.95
2018-04-16T19:04:22.040Z,12.06
2018-04-16T19:06:50.887Z,12.24
2018-04-16T19:09:19.703Z,12.14
2018-04-16T19:11:48.600Z,12.08
2018-04-16T19:14:17.628Z,12.18
2018-04-16T19:16:46.478Z,12.04
2018-04-16T19:19:15.453Z,12.07
2018-04-16T19:21:49.928Z,12.15
2018-04-16T19:24:18.860Z,12.23
2018-04-16T19:26:53.146Z,12.26
2018-04-16T19:29:22.021Z,11.98
2018-04-16T19:31:50.793Z,11.87
2018-04-16T19:34:25.097Z,11.66
2018-04-16T19:36:53.879Z,11.95
2018-04-16T19:39:22.939Z,11.91
2018-04-16T19:41:57.402Z,11.90
2018-04-16T19:44:26.295Z,12.11
2018-04-16T19:46:55.208Z,11.83
2018-04-16T19:52:29.548Z,11.94
2018-04-16T19:54:58.476Z,11.90
2018-04-16T19:57:33.015Z,12.11
2018-04-16T20:00:02.200Z,11.86
2018-04-16T20:02:36.650Z,11.89
2018-04-16T20:05:05.510Z,11.89
2018-04-16T20:07:34.292Z,11.90
2018-04-16T20:10:03.332Z,11.56
2018-04-16T20:12:32.325Z,11.70
2018-04-16T20:15:01.279Z,11.89
2018-04-16T20:17:30.460Z,11.79
2018-04-16T20:20:00.024Z,11.96
2018-04-16T20:22:28.865Z,11.86
2018-04-16T20:24:57.673Z,12.13
2018-04-16T20:27:26.516Z,11.72
2018-04-16T20:29:55.366Z,11.74
2018-04-16T20:32:24.208Z,11.93
2018-04-16T20:34:53.023Z,11.98
2018-04-16T20:37:21.806Z,11.75
2018-04-16T20:39:50.728Z,12.00
2018-04-16T20:42:19.812Z,11.85
2018-04-16T20:44:48.724Z,11.99
2018-04-16T20:47:17.572Z,11.59
2018-04-16T20:49:46.454Z,11.45
2018-04-16T20:52:15.410Z,11.39
2018-04-16T20:54:44.320Z,11.49
2018-04-16T20:57:13.157Z,11.44
2018-04-16T20:59:42.164Z,11.28
2018-04-16T21:02:11.264Z,11.25
2018-04-16T21:04:40.203Z,11.28
2018-04-16T21:07:09.654Z,11.29
2018-04-16T21:09:38.497Z,11.23
2018-04-16T21:12:07.944Z,11.17
2018-04-16T21:14:36.934Z,11.12
2018-04-16T21:17:05.831Z,11.09
2018-04-16T21:19:34.857Z,11.30
2018-04-16T21:22:05.707Z,11.33
2018-04-16T21:24:35.031Z,11.21
2018-04-16T21:27:03.865Z,11.31
2018-04-16T21:29:33.584Z,11.22
2018-04-16T21:32:02.545Z,11.29
2018-04-16T21:34:31.372Z,11.06
2018-04-16T21:37:00.400Z,11.47
2018-04-16T21:39:29.369Z,11.08
2018-04-16T21:41:58.351Z,10.92
2018-04-16T21:44:27.337Z,10.89
2018-04-16T21:46:56.398Z,10.83
2018-04-16T21:49:25.248Z,10.81
2018-04-16T21:51:54.160Z,10.88
2018-04-16T21:54:23.178Z,10.87
2018-04-16T21:56:52.019Z,10.87
2018-04-16T21:59:20.880Z,10.79
2018-04-16T22:01:49.788Z,10.69
2018-04-16T22:04:18.596Z,10.61
2018-04-16T22:06:47.576Z,10.59
2018-04-16T22:09:16.473Z,10.59
2018-04-16T22:11:45.376Z,10.59
2018-04-16T22:14:14.291Z,10.60
2018-04-16T22:16:43.437Z,10.57
2018-04-16T22:19:12.450Z,10.91
2018-04-16T22:21:41.286Z,11.35
2018-04-16T22:24:10.490Z,11.23
2018-04-16T22:26:39.481Z,11.21
2018-04-16T22:29:08.521Z,11.06
2018-04-16T22:31:37.407Z,10.89
2018-04-16T22:34:06.331Z,10.80
2018-04-16T22:36:35.191Z,10.76
2018-04-16T22:39:04.140Z,10.99
2018-04-16T22:41:33.081Z,10.81
2018-04-16T22:44:02.334Z,10.77
2018-04-16T22:46:31.409Z,10.68
2018-04-16T22:49:01.868Z,10.64
2018-04-16T22:51:30.894Z,10.80
2018-04-16T22:53:59.704Z,10.63
2018-04-16T22:56:28.710Z,10.50
2018-04-16T22:58:57.569Z,10.48
2018-04-16T23:01:26.637Z,10.65
2018-04-16T23:03:55.756Z,11.12
2018-04-16T23:06:24.908Z,11.13
2018-04-16T23:08:54.251Z,10.73
2018-04-16T23:11:23.373Z,10.81
2018-04-16T23:13:52.606Z,10.85
2018-04-16T23:16:21.756Z,11.04
2018-04-16T23:18:50.891Z,11.02
2018-04-16T23:21:19.993Z,10.78
2018-04-16T23:23:49.149Z,10.64
2018-04-16T23:26:18.340Z,10.64
2018-04-16T23:28:47.428Z,10.79
2018-04-16T23:31:16.409Z,10.63
2018-04-16T23:33:45.391Z,11.16
2018-04-16T23:36:14.413Z,11.52
2018-04-16T23:38:43.548Z,11.42
2018-04-16T23:41:12.552Z,11.63
2018-04-16T23:43:41.540Z,11.39
2018-04-16T23:46:10.570Z,11.32
2018-04-16T23:48:40.431Z,11.09
2018-04-16T23:51:09.582Z,11.19
2018-04-16T23:53:38.973Z,11.15
2018-04-16T23:56:07.947Z,11.06
2018-04-16T23:58:38.972Z,11.06
